Impacts METAR Board
IDs:

KTOI - Troy Muni, AL, US

Updated at: 1200 UTC 20 May 2018
Potential Impact None Slight Moderate High
Time 20/00Z 20/01Z 20/02Z 20/03Z 20/04Z 20/05Z 20/06Z 20/07Z 20/08Z 20/09Z 20/10Z 20/11Z 20/12Z
Temp82 75 74 72 71 71 71 69 70 70 68 67 69
Dewpt68 72 69 70 69 69 69 68 68 68 67 66 67
Altim30.01 30.04 30.05 30.07 30.08 30.09 30.08 30.07 30.05 30.08 30.08 30.09 30.10
VIS10 10 10 10 7 6 7 4 6 5 3 1.75 3
CIG-- -- -- -- -- -- -- -- -- -- -- -- --
CoverCLRCLRCLRSCTFEWFEWCLRCLRCLRFEWCLRCLRCLR
FltCatVFRVFRVFRVFRVFRVFRVFRMVFRVFRMVFRMVFRIFRMVFR
WX----------BR--BRBRBRBRBRBR
WDir02101800801100000000
WSpd0 5 3 0 3 3 0 0 0 0 0 0 0
WGst-- -- -- -- -- -- -- -- -- -- -- -- --
Raw hourly METARs
KTOI 192353Z AUTO 00000KT 10SM CLR 28/20 A3001 RMK AO2 SLP155 60013 T02780200 10306 20228 53001
KTOI 200053Z AUTO 21005KT 10SM CLR 24/22 A3004 RMK AO2 SLP167 T02390222
KTOI 200153Z AUTO 18003KT 10SM CLR 23/21 A3005 RMK AO2 LTG DSNT W SLP170 T02330206
KTOI 200253Z AUTO 00000KT 10SM SCT060 22/21 A3007 RMK AO2 LTG DSNT E SLP179 T02220211 51023
KTOI 200353Z AUTO 08003KT 7SM FEW055 22/21 A3008 RMK AO2 SLP182 T02170206
KTOI 200453Z AUTO 11003KT 6SM BR FEW055 22/21 A3009 RMK AO2 SLP183 T02170206
KTOI 200553Z AUTO 00000KT 7SM CLR 22/21 A3008 RMK AO2 SLP179 T02170206 10278 20217 403060200 50002
KTOI 200703Z AUTO 00000KT 4SM BR CLR 21/20 A3007 RMK AO2 T02060200
KTOI 200753Z AUTO 00000KT 6SM BR CLR 21/20 A3005 RMK AO2 SLP171 T02110200
KTOI 200900Z AUTO 00000KT 5SM BR FEW060 21/20 A3008 RMK AO2 T02110200
KTOI 200958Z AUTO 00000KT 3SM BR CLR 20/19 A3008 RMK AO2 T02000194
KTOI 201053Z AUTO 00000KT 1 3/4SM BR CLR 19/19 A3009 RMK AO2 SLP185 T01940189
KTOI 201153Z AUTO 00000KT 3SM BR CLR 21/19 A3010 RMK AO2 SLP188 70013 T02060194 10217 20194 53006



Page loaded:  12:09 UTC  |   05:09 AM Pacific  |   06:09 AM Mountain  |   07:09 AM Central  |   08:09 AM Eastern

 

ADVISORIES

FORECASTS

FORECASTS

OBSERVATIONS

USER TOOLS

ABOUT US